^^
Meteo Knjazevac Station Historical Data
Daily Summary for August 26, 2022 Units:  Both    English   Metric
Daily Weekly Monthly Yearly Custom
  High: Low: Average:
Temperature: 51.1 °F /  10.6 °C 28.2 °F /  -2.1 °C 37.4 °F /  3 °C
Dew Point: 43.1 °F /  6.2 °C 28 °F /  -2.2 °C 35.5 °F /  1.9 °C
Humidity: 99% 73.3% 93%
Wind Speed: 9.4mph /  15.1km/h - 3.5mph /  5.6km/h
Wind Gust: 12mph /  19.3km/h - -
Wind- - West
Pressure: 30.30 in /  1026 hPa 30.16 in /  1021.2 hPa -
Precipitation: 0.00 in /  0 mm    
Historical Graphs
 
 
Tabular Data for August 26, 2022
Time Temperature Dew Point Pressure Wind Wind Speed Wind Gust Humidity Rainfall Rate (Hourly) solar Conditions
00:04 33.4 °F /  0.8 °C 33.2 °F /  0.7 °C 30.17in /  1021.6hPa NNE 2.3mph /  3.7km/h 3mph /  4.8km/h 99% 0.00in /  0mm 0 W/m2
00:09 33.4 °F /  0.8 °C 33.2 °F /  0.7 °C 30.17in /  1021.6hPa NE 4.7mph /  7.6km/h 3.4mph /  5.5km/h 99% 0.00in /  0mm 0 W/m2
00:14 33.9 °F /  1.1 °C 33.6 °F /  0.9 °C 30.17in /  1021.6hPa ESE 4.3mph /  6.9km/h 6mph /  9.7km/h 99% 0.00in /  0mm 0 W/m2
00:19 34.4 °F /  1.3 °C 34.1 °F /  1.2 °C 30.17in /  1021.6hPa ESE 3.2mph /  5.1km/h 5mph /  8km/h 99% 0.00in /  0mm 0 W/m2
00:24 34.5 °F /  1.4 °C 34.3 °F /  1.3 °C 30.17in /  1021.6hPa East 1.2mph /  1.9km/h 5mph /  8km/h 99% 0.00in /  0mm 0 W/m2
00:29 34.5 °F /  1.4 °C 34.3 °F /  1.3 °C 30.17in /  1021.6hPa NNE 2.8mph /  4.5km/h 2mph /  3.2km/h 99% 0.00in /  0mm 0 W/m2
00:34 34.4 °F /  1.3 °C 34.2 °F /  1.2 °C 30.16in /  1021.2hPa ENE 2.6mph /  4.2km/h 4mph /  6.4km/h 99% 0.00in /  0mm 0 W/m2
00:39 34.3 °F /  1.3 °C 34 °F /  1.1 °C 30.16in /  1021.2hPa South 2mph /  3.2km/h 3mph /  4.8km/h 99% 0.00in /  0mm 0 W/m2
00:44 34.1 °F /  1.2 °C 33.8 °F /  1 °C 30.17in /  1021.6hPa West 2.6mph /  4.2km/h 2.2mph /  3.5km/h 99% 0.00in /  0mm 0 W/m2
00:49 34.1 °F /  1.2 °C 33.8 °F /  1 °C 30.17in /  1021.6hPa SSW 3.9mph /  6.3km/h 4mph /  6.4km/h 99% 0.00in /  0mm 0 W/m2
00:54 34.3 °F /  1.3 °C 34.1 °F /  1.2 °C 30.16in /  1021.2hPa SSE 4.1mph /  6.6km/h 5mph /  8km/h 99% 0.00in /  0mm 0 W/m2
00:59 34.5 °F /  1.4 °C 34.3 °F /  1.3 °C 30.17in /  1021.6hPa ESE 2.8mph /  4.5km/h 6mph /  9.7km/h 99% 0.00in /  0mm 0 W/m2
01:04 34.5 °F /  1.4 °C 34.3 °F /  1.3 °C 30.17in /  1021.6hPa ENE 2.9mph /  4.7km/h 3mph /  4.8km/h 99% 0.00in /  0mm 0 W/m2
01:09 34.4 °F /  1.3 °C 34.2 °F /  1.2 °C 30.17in /  1021.6hPa ENE 1.5mph /  2.4km/h 5mph /  8km/h 99% 0.00in /  0mm 0 W/m2
01:14 34.3 °F /  1.3 °C 34 °F /  1.1 °C 30.17in /  1021.6hPa SE 0.5mph /  0.8km/h 5mph /  8km/h 99% 0.00in /  0mm 0 W/m2
01:19 33.8 °F /  1 °C 33.6 °F /  0.9 °C 30.17in /  1021.6hPa SSW 1.6mph /  2.6km/h 2mph /  3.2km/h 99% 0.00in /  0mm 0 W/m2
01:24 33.5 °F /  0.8 °C 33.2 °F /  0.7 °C 30.17in /  1021.6hPa WNW 2.2mph /  3.5km/h 2mph /  3.2km/h 99% 0.00in /  0mm 0 W/m2
01:29 33.1 °F /  0.6 °C 32.9 °F /  0.5 °C 30.17in /  1021.6hPa NNW 1mph /  1.6km/h 2mph /  3.2km/h 99% 0.00in /  0mm 0 W/m2
01:34 32.6 °F /  0.3 °C 32.3 °F /  0.2 °C 30.17in /  1021.6hPa North 0.7mph /  1.1km/h 2mph /  3.2km/h 99% 0.00in /  0mm 0 W/m2
01:39 32.3 °F /  0.2 °C 32 °F /  0 °C 30.17in /  1021.6hPa NNW 1.4mph /  2.3km/h 1.3mph /  2.1km/h 99% 0.00in /  0mm 0 W/m2
01:44 31.9 °F /  -0.1 °C 31.7 °F /  -0.2 °C 30.17in /  1021.6hPa WNW 2.3mph /  3.7km/h 2mph /  3.2km/h 99% 0.00in /  0mm 0 W/m2
01:49 31.6 °F /  -0.2 °C 31.4 °F /  -0.3 °C 30.17in /  1021.6hPa West 2.9mph /  4.7km/h 3mph /  4.8km/h 99% 0.00in /  0mm 0 W/m2
01:54 31.4 °F /  -0.3 °C 31.1 °F /  -0.5 °C 30.18in /  1021.9hPa West 3.6mph /  5.8km/h 4mph /  6.4km/h 99% 0.00in /  0mm 0 W/m2
01:59 31.2 °F /  -0.4 °C 30.9 °F /  -0.6 °C 30.18in /  1021.9hPa West 2.5mph /  4km/h 5mph /  8km/h 99% 0.00in /  0mm 0 W/m2
02:04 31.1 °F /  -0.5 °C 30.9 °F /  -0.6 °C 30.18in /  1021.9hPa WNW 2.2mph /  3.5km/h 2mph /  3.2km/h 99% 0.00in /  0mm 0 W/m2
02:09 30.9 °F /  -0.6 °C 30.7 °F /  -0.7 °C 30.18in /  1021.9hPa NW 2.3mph /  3.7km/h 3mph /  4.8km/h 99% 0.00in /  0mm 0 W/m2
02:14 30.9 °F /  -0.6 °C 30.7 °F /  -0.7 °C 30.18in /  1021.9hPa NW 1.6mph /  2.6km/h 3mph /  4.8km/h 99% 0.00in /  0mm 0 W/m2
02:19 30.8 °F /  -0.7 °C 30.6 °F /  -0.8 °C 30.18in /  1021.9hPa NW 1.6mph /  2.6km/h 2mph /  3.2km/h 99% 0.00in /  0mm 0 W/m2
02:24 30.7 °F /  -0.7 °C 30.4 °F /  -0.9 °C 30.18in /  1021.9hPa NW 1.7mph /  2.7km/h 2mph /  3.2km/h 99% 0.00in /  0mm 0 W/m2
02:29 30.6 °F /  -0.8 °C 30.3 °F /  -0.9 °C 30.18in /  1021.9hPa NW 1.7mph /  2.7km/h 2mph /  3.2km/h 99% 0.00in /  0mm 0 W/m2
02:34 30.4 °F /  -0.9 °C 30.1 °F /  -1.1 °C 30.18in /  1021.9hPa NW 1.8mph /  2.9km/h 2mph /  3.2km/h 99% 0.00in /  0mm 0 W/m2
02:39 30.2 °F /  -1 °C 30 °F /  -1.1 °C 30.18in /  1021.9hPa NNW 1.4mph /  2.3km/h 2mph /  3.2km/h 99% 0.00in /  0mm 0 W/m2
02:44 30.2 °F /  -1 °C 30 °F /  -1.1 °C 30.18in /  1021.9hPa NNW 2.8mph /  4.5km/h 2.2mph /  3.5km/h 99% 0.00in /  0mm 0 W/m2
02:49 30 °F /  -1.1 °C 29.8 °F /  -1.2 °C 30.18in /  1021.9hPa NW 2.2mph /  3.5km/h 3mph /  4.8km/h 99% 0.00in /  0mm 0 W/m2
02:54 29.9 °F /  -1.2 °C 29.7 °F /  -1.3 °C 30.18in /  1021.9hPa NW 2.7mph /  4.3km/h 3mph /  4.8km/h 99% 0.00in /  0mm 0 W/m2
02:59 29.8 °F /  -1.2 °C 29.6 °F /  -1.3 °C 30.18in /  1021.9hPa NW 2.3mph /  3.7km/h 3mph /  4.8km/h 99% 0.00in /  0mm 0 W/m2
03:04 29.8 °F /  -1.2 °C 29.6 °F /  -1.3 °C 30.18in /  1021.9hPa NW 2.5mph /  4km/h 4mph /  6.4km/h 99% 0.00in /  0mm 0 W/m2
03:09 29.9 °F /  -1.2 °C 29.7 °F /  -1.3 °C 30.18in /  1021.9hPa NW 1mph /  1.6km/h 3mph /  4.8km/h 99% 0.00in /  0mm 0 W/m2
03:14 29.8 °F /  -1.2 °C 29.5 °F /  -1.4 °C 30.18in /  1021.9hPa WNW 0.6mph /  1km/h 1mph /  1.6km/h 99% 0.00in /  0mm 0 W/m2
03:19 29.6 °F /  -1.3 °C 29.3 °F /  -1.5 °C 30.18in /  1021.9hPa WNW 2mph /  3.2km/h 2mph /  3.2km/h 99% 0.00in /  0mm 0 W/m2
03:24 29.3 °F /  -1.5 °C 29.1 °F /  -1.6 °C 30.18in /  1021.9hPa West 1.8mph /  2.9km/h 2mph /  3.2km/h 99% 0.00in /  0mm 0 W/m2
03:29 29.1 °F /  -1.6 °C 28.9 °F /  -1.7 °C 30.18in /  1021.9hPa WNW 2.6mph /  4.2km/h 2.5mph /  4km/h 99% 0.00in /  0mm 0 W/m2
03:34 29 °F /  -1.7 °C 28.8 °F /  -1.8 °C 30.18in /  1021.9hPa WNW 2.9mph /  4.7km/h 3mph /  4.8km/h 99% 0.00in /  0mm 0 W/m2
03:39 28.9 °F /  -1.7 °C 28.7 °F /  -1.8 °C 30.18in /  1021.9hPa WNW 1.9mph /  3.1km/h 3mph /  4.8km/h 99% 0.00in /  0mm 0 W/m2
03:44 28.9 °F /  -1.7 °C 28.7 °F /  -1.8 °C 30.18in /  1021.9hPa WNW 1.8mph /  2.9km/h 2mph /  3.2km/h 99% 0.00in /  0mm 0 W/m2
03:49 28.8 °F /  -1.8 °C 28.6 °F /  -1.9 °C 30.18in /  1021.9hPa WNW 1.9mph /  3.1km/h 2mph /  3.2km/h 99% 0.00in /  0mm 0 W/m2
03:54 28.8 °F /  -1.8 °C 28.5 °F /  -1.9 °C 30.19in /  1022.2hPa NW 1.2mph /  1.9km/h 2mph /  3.2km/h 99% 0.00in /  0mm 0 W/m2
03:59 28.8 °F /  -1.8 °C 28.6 °F /  -1.9 °C 30.18in /  1021.9hPa NNW 2.1mph /  3.4km/h 2mph /  3.2km/h 99% 0.00in /  0mm 0 W/m2
04:04 28.9 °F /  -1.7 °C 28.7 °F /  -1.8 °C 30.18in /  1021.9hPa NNW 1.3mph /  2.1km/h 2mph /  3.2km/h 99% 0.00in /  0mm 0 W/m2
04:09 28.9 °F /  -1.7 °C 28.7 °F /  -1.8 °C 30.18in /  1021.9hPa NW 2.1mph /  3.4km/h 2.2mph /  3.5km/h 99% 0.00in /  0mm 0 W/m2
04:14 28.9 °F /  -1.7 °C 28.7 °F /  -1.8 °C 30.19in /  1022.2hPa NNW 2mph /  3.2km/h 3mph /  4.8km/h 99% 0.00in /  0mm 0 W/m2
04:19 28.9 °F /  -1.7 °C 28.7 °F /  -1.8 °C 30.19in /  1022.2hPa NNW 1.8mph /  2.9km/h 2mph /  3.2km/h 99% 0.00in /  0mm 0 W/m2
04:24 29.1 °F /  -1.6 °C 28.9 °F /  -1.7 °C 30.19in /  1022.2hPa NNW 2.3mph /  3.7km/h 2mph /  3.2km/h 99% 0.00in /  0mm 0 W/m2
04:29 29.3 °F /  -1.5 °C 29.1 °F /  -1.6 °C 30.19in /  1022.2hPa NNW 1mph /  1.6km/h 3mph /  4.8km/h 99% 0.00in /  0mm 0 W/m2
04:34 29.2 °F /  -1.6 °C 29 °F /  -1.7 °C 30.19in /  1022.2hPa NNW 1.2mph /  1.9km/h 1mph /  1.6km/h 99% 0.00in /  0mm 0 W/m2
04:39 29 °F /  -1.7 °C 28.8 °F /  -1.8 °C 30.19in /  1022.2hPa WNW 2mph /  3.2km/h 2mph /  3.2km/h 99% 0.00in /  0mm 0 W/m2
04:44 28.9 °F /  -1.7 °C 28.7 °F /  -1.8 °C 30.19in /  1022.2hPa NW 0.9mph /  1.4km/h 3mph /  4.8km/h 99% 0.00in /  0mm 0 W/m2
04:49 28.9 °F /  -1.7 °C 28.7 °F /  -1.8 °C 30.19in /  1022.2hPa North 1.3mph /  2.1km/h 1mph /  1.6km/h 99% 0.00in /  0mm 0 W/m2
04:54 28.9 °F /  -1.7 °C 28.7 °F /  -1.8 °C 30.20in /  1022.6hPa NNW 1.9mph /  3.1km/h 2mph /  3.2km/h 99% 0.00in /  0mm 0 W/m2
04:59 28.9 °F /  -1.7 °C 28.7 °F /  -1.8 °C 30.20in /  1022.6hPa NW 2mph /  3.2km/h 2mph /  3.2km/h 99% 0.00in /  0mm 0 W/m2
05:04 29 °F /  -1.7 °C 28.8 °F /  -1.8 °C 30.20in /  1022.6hPa NNW 2.1mph /  3.4km/h 3mph /  4.8km/h 99% 0.00in /  0mm 0 W/m2
05:09 28.9 °F /  -1.7 °C 28.7 °F /  -1.8 °C 30.20in /  1022.6hPa NNW 1.8mph /  2.9km/h 2mph /  3.2km/h 99% 0.00in /  0mm 0 W/m2
05:14 28.9 °F /  -1.7 °C 28.7 °F /  -1.8 °C 30.20in /  1022.6hPa North 2.1mph /  3.4km/h 2mph /  3.2km/h 99% 0.00in /  0mm 0 W/m2
05:19 28.7 °F /  -1.8 °C 28.5 °F /  -1.9 °C 30.21in /  1022.9hPa NNW 1.4mph /  2.3km/h 2mph /  3.2km/h 99% 0.00in /  0mm 0 W/m2
05:24 28.6 °F /  -1.9 °C 28.3 °F /  -2.1 °C 30.21in /  1022.9hPa NNW 1.8mph /  2.9km/h 2mph /  3.2km/h 99% 0.00in /  0mm 0 W/m2
05:29 28.4 °F /  -2 °C 28.2 °F /  -2.1 °C 30.21in /  1022.9hPa NNW 2.1mph /  3.4km/h 2mph /  3.2km/h 99% 0.00in /  0mm 0 W/m2
05:34 28.4 °F /  -2 °C 28.2 °F /  -2.1 °C 30.21in /  1022.9hPa NNW 2.1mph /  3.4km/h 3mph /  4.8km/h 99% 0.00in /  0mm 0 W/m2
05:39 28.4 °F /  -2 °C 28.2 °F /  -2.1 °C 30.21in /  1022.9hPa West 1.5mph /  2.4km/h 4mph /  6.4km/h 99% 0.00in /  0mm 0 W/m2
05:44 28.3 °F /  -2.1 °C 28.1 °F /  -2.2 °C 30.22in /  1023.2hPa WNW 2.4mph /  3.9km/h 2mph /  3.2km/h 99% 0.00in /  0mm 0 W/m2
05:49 28.2 °F /  -2.1 °C 28 °F /  -2.2 °C 30.22in /  1023.2hPa NW 2.4mph /  3.9km/h 3mph /  4.8km/h 99% 0.00in /  0mm 0 W/m2
05:54 28.3 °F /  -2.1 °C 28.1 °F /  -2.2 °C 30.22in /  1023.2hPa NNW 2.9mph /  4.7km/h 3mph /  4.8km/h 99% 0.00in /  0mm 0 W/m2
05:59 28.5 °F /  -1.9 °C 28.2 °F /  -2.1 °C 30.21in /  1022.9hPa NNW 2.2mph /  3.5km/h 5mph /  8km/h 99% 0.00in /  0mm 0 W/m2
06:04 29 °F /  -1.7 °C 28.8 °F /  -1.8 °C 30.21in /  1022.9hPa NNE 3.2mph /  5.1km/h 3mph /  4.8km/h 99% 0.00in /  0mm 0 W/m2
06:09 29.8 °F /  -1.2 °C 29.5 °F /  -1.4 °C 30.22in /  1023.2hPa East 2.3mph /  3.7km/h 3mph /  4.8km/h 99% 0.00in /  0mm 0 W/m2
06:14 29.8 °F /  -1.2 °C 29.6 °F /  -1.3 °C 30.21in /  1022.9hPa SW 1.9mph /  3.1km/h 3mph /  4.8km/h 99% 0.00in /  0mm 0 W/m2
06:19 29.4 °F /  -1.4 °C 29.2 °F /  -1.6 °C 30.21in /  1022.9hPa West 2.5mph /  4km/h 2mph /  3.2km/h 99% 0.00in /  0mm 0 W/m2
06:24 29.2 °F /  -1.6 °C 29 °F /  -1.7 °C 30.21in /  1022.9hPa WNW 3mph /  4.8km/h 3mph /  4.8km/h 99% 0.00in /  0mm 0 W/m2
06:29 29 °F /  -1.7 °C 28.8 °F /  -1.8 °C 30.21in /  1022.9hPa WNW 4.5mph /  7.2km/h 4mph /  6.4km/h 99% 0.00in /  0mm 1 W/m2
06:34 28.9 °F /  -1.7 °C 28.7 °F /  -1.8 °C 30.22in /  1023.2hPa WNW 1.5mph /  2.4km/h 7mph /  11.3km/h 99% 0.00in /  0mm 2 W/m2
06:39 28.7 °F /  -1.8 °C 28.4 °F /  -2 °C 30.22in /  1023.2hPa NW 1.9mph /  3.1km/h 2mph /  3.2km/h 99% 0.00in /  0mm 4 W/m2
06:44 28.5 °F /  -1.9 °C 28.3 °F /  -2.1 °C 30.22in /  1023.2hPa WNW 3.3mph /  5.3km/h 2.9mph /  4.7km/h 99% 0.00in /  0mm 7 W/m2
06:49 28.4 °F /  -2 °C 28.2 °F /  -2.1 °C 30.22in /  1023.2hPa NW 2.6mph /  4.2km/h 5mph /  8km/h 99% 0.00in /  0mm 12 W/m2
06:54 28.4 °F /  -2 °C 28.2 °F /  -2.1 °C 30.22in /  1023.2hPa NW 2.6mph /  4.2km/h 3mph /  4.8km/h 99% 0.00in /  0mm 17 W/m2
06:59 28.3 °F /  -2.1 °C 28.1 °F /  -2.2 °C 30.22in /  1023.2hPa NNW 2.4mph /  3.9km/h 3mph /  4.8km/h 99% 0.00in /  0mm 21 W/m2
07:04 28.4 °F /  -2 °C 28.2 °F /  -2.1 °C 30.22in /  1023.2hPa NNW 2.2mph /  3.5km/h 3mph /  4.8km/h 99% 0.00in /  0mm 30 W/m2
07:09 28.4 °F /  -2 °C 28.2 °F /  -2.1 °C 30.22in /  1023.2hPa NW 1.4mph /  2.3km/h 2mph /  3.2km/h 99% 0.00in /  0mm 35 W/m2
07:14 28.4 °F /  -2 °C 28.2 °F /  -2.1 °C 30.22in /  1023.2hPa NW 2.3mph /  3.7km/h 2mph /  3.2km/h 99% 0.00in /  0mm 51 W/m2
07:19 28.4 °F /  -2 °C 28.2 °F /  -2.1 °C 30.22in /  1023.2hPa NW 2.2mph /  3.5km/h 3mph /  4.8km/h 99% 0.00in /  0mm 54 W/m2
07:24 28.4 °F /  -2 °C 28.2 °F /  -2.1 °C 30.23in /  1023.6hPa WNW 2.1mph /  3.4km/h 2mph /  3.2km/h 99% 0.00in /  0mm 53 W/m2
07:29 28.5 °F /  -1.9 °C 28.2 °F /  -2.1 °C 30.23in /  1023.6hPa WNW 3mph /  4.8km/h 2.5mph /  4km/h 99% 0.00in /  0mm 66 W/m2
07:34 28.7 °F /  -1.8 °C 28.4 °F /  -2 °C 30.23in /  1023.6hPa WNW 3mph /  4.8km/h 4mph /  6.4km/h 99% 0.00in /  0mm 80 W/m2
07:39 29.1 °F /  -1.6 °C 28.9 °F /  -1.7 °C 30.23in /  1023.6hPa WNW 2.3mph /  3.7km/h 4mph /  6.4km/h 99% 0.00in /  0mm 101 W/m2
07:44 29.6 °F /  -1.3 °C 29.4 °F /  -1.4 °C 30.23in /  1023.6hPa WNW 1.9mph /  3.1km/h 3mph /  4.8km/h 99% 0.00in /  0mm 111 W/m2
07:49 30.2 °F /  -1 °C 30 °F /  -1.1 °C 30.23in /  1023.6hPa NW 2mph /  3.2km/h 3mph /  4.8km/h 99% 0.00in /  0mm 125 W/m2
07:54 30.8 °F /  -0.7 °C 30.6 °F /  -0.8 °C 30.23in /  1023.6hPa NW 2mph /  3.2km/h 2mph /  3.2km/h 99% 0.00in /  0mm 130 W/m2
07:59 31.4 °F /  -0.3 °C 31.2 °F /  -0.4 °C 30.23in /  1023.6hPa NW 2.1mph /  3.4km/h 2.2mph /  3.5km/h 99% 0.00in /  0mm 158 W/m2
08:04 32.1 °F /  0.1 °C 31.8 °F /  -0.1 °C 30.23in /  1023.6hPa NNW 0.2mph /  0.3km/h 2mph /  3.2km/h 99% 0.00in /  0mm 187 W/m2
08:09 32.8 °F /  0.4 °C 32.6 °F /  0.3 °C 30.23in /  1023.6hPa NW 2.5mph /  4km/h 2mph /  3.2km/h 99% 0.00in /  0mm 201 W/m2
08:14 33.3 °F /  0.7 °C 33.1 °F /  0.6 °C 30.23in /  1023.6hPa NW 2.4mph /  3.9km/h 3mph /  4.8km/h 99% 0.00in /  0mm 209 W/m2
08:19 34 °F /  1.1 °C 33.7 °F /  0.9 °C 30.23in /  1023.6hPa NW 2.6mph /  4.2km/h 3mph /  4.8km/h 99% 0.00in /  0mm 207 W/m2
08:24 34.6 °F /  1.4 °C 34.3 °F /  1.3 °C 30.23in /  1023.6hPa West 2.6mph /  4.2km/h 2.2mph /  3.5km/h 99% 0.00in /  0mm 203 W/m2
08:29 35 °F /  1.7 °C 34.8 °F /  1.6 °C 30.23in /  1023.6hPa West 2.3mph /  3.7km/h 3mph /  4.8km/h 99% 0.00in /  0mm 220 W/m2
08:34 35.6 °F /  2 °C 35.3 °F /  1.8 °C 30.23in /  1023.6hPa West 2.3mph /  3.7km/h 3mph /  4.8km/h 99% 0.00in /  0mm 223 W/m2
08:39 36.6 °F /  2.6 °C 36.4 °F /  2.4 °C 30.23in /  1023.6hPa WSW 2.7mph /  4.3km/h 3mph /  4.8km/h 99% 0.00in /  0mm 263 W/m2
08:44 37.7 °F /  3.2 °C 37.4 °F /  3 °C 30.23in /  1023.6hPa WSW 2.5mph /  4km/h 3mph /  4.8km/h 99% 0.00in /  0mm 279 W/m2
08:49 38.3 °F /  3.5 °C 38 °F /  3.3 °C 30.24in /  1023.9hPa West 2.3mph /  3.7km/h 3mph /  4.8km/h 99% 0.00in /  0mm 286 W/m2
08:54 39.1 °F /  3.9 °C 38.7 °F /  3.7 °C 30.24in /  1023.9hPa WSW 2.1mph /  3.4km/h 3mph /  4.8km/h 98.5% 0.00in /  0mm 311 W/m2
08:59 39.7 °F /  4.3 °C 39.2 °F /  4 °C 30.24in /  1023.9hPa WSW 2.2mph /  3.5km/h 2mph /  3.2km/h 98% 0.00in /  0mm 315 W/m2
09:04 40 °F /  4.4 °C 39.2 °F /  4 °C 30.24in /  1023.9hPa WSW 1.7mph /  2.7km/h 2mph /  3.2km/h 96.7% 0.00in /  0mm 325 W/m2
09:09 40.5 °F /  4.7 °C 39.4 °F /  4.1 °C 30.24in /  1023.9hPa WSW 1.5mph /  2.4km/h 2mph /  3.2km/h 96% 0.00in /  0mm 270 W/m2
09:14 40.9 °F /  4.9 °C 39.9 °F /  4.4 °C 30.24in /  1023.9hPa West 2.1mph /  3.4km/h 2mph /  3.2km/h 96% 0.00in /  0mm 316 W/m2
09:19 41.6 °F /  5.3 °C 40.3 °F /  4.6 °C 30.24in /  1023.9hPa WSW 2.8mph /  4.5km/h 2.2mph /  3.5km/h 95.1% 0.00in /  0mm 353 W/m2
09:24 42.2 °F /  5.7 °C 40.7 °F /  4.8 °C 30.24in /  1023.9hPa WSW 2.3mph /  3.7km/h 3mph /  4.8km/h 94.3% 0.00in /  0mm 337 W/m2
09:29 42.8 °F /  6 °C 41.3 °F /  5.2 °C 30.24in /  1023.9hPa WSW 2.7mph /  4.3km/h 3mph /  4.8km/h 94.2% 0.00in /  0mm 324 W/m2
09:34 43.8 °F /  6.6 °C 42 °F /  5.6 °C 30.24in /  1023.9hPa WSW 3.3mph /  5.3km/h 3mph /  4.8km/h 93.3% 0.00in /  0mm 333 W/m2
09:39 44.3 °F /  6.8 °C 42.2 °F /  5.7 °C 30.24in /  1023.9hPa WSW 3.5mph /  5.6km/h 4mph /  6.4km/h 92.3% 0.00in /  0mm 347 W/m2
09:44 44.6 °F /  7 °C 42 °F /  5.6 °C 30.24in /  1023.9hPa WSW 4.1mph /  6.6km/h 4mph /  6.4km/h 90.6% 0.00in /  0mm 333 W/m2
09:49 44.6 °F /  7 °C 41.8 °F /  5.4 °C 30.24in /  1023.9hPa SW 3.7mph /  6km/h 5mph /  8km/h 90% 0.00in /  0mm 333 W/m2
09:54 44.8 °F /  7.1 °C 41.9 °F /  5.5 °C 30.24in /  1023.9hPa SW 3.7mph /  6km/h 4mph /  6.4km/h 89.8% 0.00in /  0mm 408 W/m2
09:59 44.8 °F /  7.1 °C 41.7 °F /  5.4 °C 30.24in /  1023.9hPa SW 5.8mph /  9.3km/h 5mph /  8km/h 89.1% 0.00in /  0mm 415 W/m2
10:04 45.2 °F /  7.3 °C 42.4 °F /  5.8 °C 30.24in /  1023.9hPa WSW 6mph /  9.7km/h 7mph /  11.3km/h 89.7% 0.00in /  0mm 436 W/m2
10:09 45.8 °F /  7.7 °C 42.4 °F /  5.8 °C 30.24in /  1023.9hPa WSW 5.4mph /  8.7km/h 7mph /  11.3km/h 88.3% 0.00in /  0mm 433 W/m2
10:14 46 °F /  7.8 °C 42.4 °F /  5.8 °C 30.24in /  1023.9hPa SW 5.9mph /  9.5km/h 6mph /  9.7km/h 87.1% 0.00in /  0mm 433 W/m2
10:19 46.1 °F /  7.8 °C 42 °F /  5.6 °C 30.24in /  1023.9hPa SW 7.4mph /  11.9km/h 7mph /  11.3km/h 85.3% 0.00in /  0mm 441 W/m2
10:24 46 °F /  7.8 °C 41.8 °F /  5.4 °C 30.24in /  1023.9hPa WSW 6.4mph /  10.3km/h 8mph /  12.9km/h 85.3% 0.00in /  0mm 451 W/m2
10:29 46.3 °F /  7.9 °C 42 °F /  5.6 °C 30.24in /  1023.9hPa SW 7.4mph /  11.9km/h 8mph /  12.9km/h 85% 0.00in /  0mm 442 W/m2
10:34 46.4 °F /  8 °C 41.8 °F /  5.4 °C 30.24in /  1023.9hPa SW 7.1mph /  11.4km/h 9mph /  14.5km/h 84% 0.00in /  0mm 455 W/m2
10:39 46.7 °F /  8.2 °C 42.1 °F /  5.6 °C 30.24in /  1023.9hPa WSW 6.8mph /  10.9km/h 8mph /  12.9km/h 84% 0.00in /  0mm 450 W/m2
10:44 47.1 °F /  8.4 °C 42.2 °F /  5.7 °C 30.24in /  1023.9hPa WSW 8mph /  12.9km/h 8mph /  12.9km/h 83.3% 0.00in /  0mm 438 W/m2
10:49 47 °F /  8.3 °C 41.9 °F /  5.5 °C 30.23in /  1023.6hPa WSW 7.6mph /  12.2km/h 9mph /  14.5km/h 82.2% 0.00in /  0mm 418 W/m2
10:54 47.1 °F /  8.4 °C 41.9 °F /  5.5 °C 30.23in /  1023.6hPa WSW 7.2mph /  11.6km/h 9mph /  14.5km/h 81.9% 0.00in /  0mm 436 W/m2
10:59 47.6 °F /  8.7 °C 42.2 °F /  5.7 °C 30.23in /  1023.6hPa SW 7.7mph /  12.4km/h 8mph /  12.9km/h 81.7% 0.00in /  0mm 461 W/m2
11:04 47.8 °F /  8.8 °C 42.2 °F /  5.7 °C 30.23in /  1023.6hPa SW 7.4mph /  11.9km/h 8mph /  12.9km/h 80.7% 0.00in /  0mm 497 W/m2
11:09 48.2 °F /  9 °C 42.3 °F /  5.7 °C 30.23in /  1023.6hPa WSW 8.9mph /  14.3km/h 8mph /  12.9km/h 80.2% 0.00in /  0mm 512 W/m2
11:14 48.7 °F /  9.3 °C 42.9 °F /  6.1 °C 30.23in /  1023.6hPa WSW 7.3mph /  11.7km/h 11mph /  17.7km/h 80.3% 0.00in /  0mm 515 W/m2
11:19 48.9 °F /  9.4 °C 42.6 °F /  5.9 °C 30.23in /  1023.6hPa SW 7.1mph /  11.4km/h 8mph /  12.9km/h 78.5% 0.00in /  0mm 525 W/m2
11:24 49.3 °F /  9.6 °C 42.7 °F /  5.9 °C 30.23in /  1023.6hPa SW 7.5mph /  12.1km/h 8mph /  12.9km/h 78.1% 0.00in /  0mm 528 W/m2
11:29 49.6 °F /  9.8 °C 42.8 °F /  6 °C 30.23in /  1023.6hPa SW 6.6mph /  10.6km/h 9mph /  14.5km/h 77.4% 0.00in /  0mm 534 W/m2
11:34 50 °F /  10 °C 43.1 °F /  6.2 °C 30.23in /  1023.6hPa SW 6.4mph /  10.3km/h 7mph /  11.3km/h 77% 0.00in /  0mm 534 W/m2
11:39 50.3 °F /  10.2 °C 42.8 °F /  6 °C 30.23in /  1023.6hPa SW 6.4mph /  10.3km/h 7mph /  11.3km/h 75.6% 0.00in /  0mm 520 W/m2
11:44 50.6 °F /  10.3 °C 43 °F /  6.1 °C 30.22in /  1023.2hPa SW 6.4mph /  10.3km/h 7mph /  11.3km/h 75% 0.00in /  0mm 504 W/m2
11:49 51.1 °F /  10.6 °C 43.1 °F /  6.2 °C 30.22in /  1023.2hPa SW 5.3mph /  8.5km/h 7mph /  11.3km/h 74.1% 0.00in /  0mm 443 W/m2
11:54 51.1 °F /  10.6 °C 42.9 °F /  6.1 °C 30.22in /  1023.2hPa SW 5.7mph /  9.2km/h 6mph /  9.7km/h 73.4% 0.00in /  0mm 440 W/m2
11:59 51 °F /  10.6 °C 42.7 °F /  5.9 °C 30.22in /  1023.2hPa SW 5.4mph /  8.7km/h 7mph /  11.3km/h 73.3% 0.00in /  0mm 406 W/m2
12:04 50.7 °F /  10.4 °C 42.6 °F /  5.9 °C 30.22in /  1023.2hPa SW 5.5mph /  8.9km/h 7mph /  11.3km/h 73.7% 0.00in /  0mm 361 W/m2
12:09 50.7 °F /  10.4 °C 42.6 °F /  5.9 °C 30.22in /  1023.2hPa WSW 3.9mph /  6.3km/h 6mph /  9.7km/h 73.6% 0.00in /  0mm 345 W/m2
12:14 50.7 °F /  10.4 °C 42.5 °F /  5.8 °C 30.22in /  1023.2hPa WSW 5.3mph /  8.5km/h 5.4mph /  8.7km/h 73.3% 0.00in /  0mm 342 W/m2
12:19 50.5 °F /  10.3 °C 42.6 °F /  5.9 °C 30.22in /  1023.2hPa SW 7.5mph /  12.1km/h 7mph /  11.3km/h 74% 0.00in /  0mm 333 W/m2
12:24 50.5 °F /  10.3 °C 42.5 °F /  5.8 °C 30.22in /  1023.2hPa SW 7.8mph /  12.6km/h 9mph /  14.5km/h 74% 0.00in /  0mm 321 W/m2
12:29 50.4 °F /  10.2 °C 42.4 °F /  5.8 °C 30.22in /  1023.2hPa SW 7.3mph /  11.7km/h 9mph /  14.5km/h 74% 0.00in /  0mm 316 W/m2
12:34 50.4 °F /  10.2 °C 42.6 °F /  5.9 °C 30.22in /  1023.2hPa SW 6.6mph /  10.6km/h 8mph /  12.9km/h 74.8% 0.00in /  0mm 324 W/m2
12:39 50.4 °F /  10.2 °C 42.5 °F /  5.8 °C 30.22in /  1023.2hPa SW 6mph /  9.7km/h 7mph /  11.3km/h 74.1% 0.00in /  0mm 322 W/m2
12:44 50.4 °F /  10.2 °C 42.4 °F /  5.8 °C 30.22in /  1023.2hPa SW 5.9mph /  9.5km/h 6mph /  9.7km/h 74% 0.00in /  0mm 328 W/m2
12:49 50.5 °F /  10.3 °C 42.6 °F /  5.9 °C 30.22in /  1023.2hPa SW 7.8mph /  12.6km/h 8mph /  12.9km/h 74% 0.00in /  0mm 252 W/m2
12:54 50.4 °F /  10.2 °C 42.5 °F /  5.8 °C 30.22in /  1023.2hPa WSW 6.5mph /  10.5km/h 8mph /  12.9km/h 74% 0.00in /  0mm 220 W/m2
12:59 50.2 °F /  10.1 °C 42.4 °F /  5.8 °C 30.22in /  1023.2hPa WSW 6.2mph /  10km/h 7mph /  11.3km/h 74.4% 0.00in /  0mm 290 W/m2
13:04 49.9 °F /  9.9 °C 42.3 °F /  5.7 °C 30.22in /  1023.2hPa WSW 7.7mph /  12.4km/h 8mph /  12.9km/h 75% 0.00in /  0mm 211 W/m2
13:09 49.5 °F /  9.7 °C 42.2 °F /  5.7 °C 30.22in /  1023.2hPa SW 7.4mph /  11.9km/h 8mph /  12.9km/h 76.2% 0.00in /  0mm 239 W/m2
13:14 49.3 °F /  9.6 °C 42.3 °F /  5.7 °C 30.22in /  1023.2hPa SW 6.9mph /  11.1km/h 8mph /  12.9km/h 76.6% 0.00in /  0mm 241 W/m2
13:19 49.5 °F /  9.7 °C 42.5 °F /  5.8 °C 30.22in /  1023.2hPa SW 6.5mph /  10.5km/h 8mph /  12.9km/h 77% 0.00in /  0mm 232 W/m2
13:24 49.7 °F /  9.8 °C 42.8 °F /  6 °C 30.22in /  1023.2hPa WSW 6mph /  9.7km/h 7mph /  11.3km/h 77% 0.00in /  0mm 226 W/m2
13:29 50 °F /  10 °C 43.1 °F /  6.2 °C 30.22in /  1023.2hPa WSW 7.7mph /  12.4km/h 7mph /  11.3km/h 77% 0.00in /  0mm 198 W/m2
13:34 49.8 °F /  9.9 °C 42.3 °F /  5.7 °C 30.22in /  1023.2hPa WSW 7.7mph /  12.4km/h 9mph /  14.5km/h 75.2% 0.00in /  0mm 177 W/m2
13:39 49.4 °F /  9.7 °C 42.3 °F /  5.7 °C 30.22in /  1023.2hPa WSW 7.8mph /  12.6km/h 8mph /  12.9km/h 76.5% 0.00in /  0mm 164 W/m2
13:44 49.1 °F /  9.5 °C 42.2 °F /  5.7 °C 30.22in /  1023.2hPa WSW 7.2mph /  11.6km/h 9mph /  14.5km/h 77.1% 0.00in /  0mm 153 W/m2
13:49 48.8 °F /  9.3 °C 41.9 °F /  5.5 °C 30.22in /  1023.2hPa West 9.4mph /  15.1km/h 8mph /  12.9km/h 77.1% 0.00in /  0mm 140 W/m2
13:54 48.4 °F /  9.1 °C 41.7 °F /  5.4 °C 30.22in /  1023.2hPa West 7.9mph /  12.7km/h 12mph /  19.3km/h 77.5% 0.00in /  0mm 139 W/m2
13:59 48 °F /  8.9 °C 41.7 °F /  5.4 °C 30.22in /  1023.2hPa West 8.5mph /  13.7km/h 8mph /  12.9km/h 78.7% 0.00in /  0mm 144 W/m2
14:04 47.8 °F /  8.8 °C 42 °F /  5.6 °C 30.22in /  1023.2hPa WSW 8.7mph /  14km/h 9mph /  14.5km/h 79.9% 0.00in /  0mm 143 W/m2
14:09 47.7 °F /  8.7 °C 41.9 °F /  5.5 °C 30.22in /  1023.2hPa WSW 8.9mph /  14.3km/h 10mph /  16.1km/h 80.2% 0.00in /  0mm 141 W/m2
14:14 47.5 °F /  8.6 °C 41.9 °F /  5.5 °C 30.23in /  1023.6hPa SW 7.4mph /  11.9km/h 10mph /  16.1km/h 81% 0.00in /  0mm 139 W/m2
14:19 47.5 °F /  8.6 °C 41.9 °F /  5.5 °C 30.22in /  1023.2hPa SW 6.6mph /  10.6km/h 8mph /  12.9km/h 81% 0.00in /  0mm 136 W/m2
14:24 47.5 °F /  8.6 °C 41.9 °F /  5.5 °C 30.22in /  1023.2hPa WSW 7.8mph /  12.6km/h 7mph /  11.3km/h 81% 0.00in /  0mm 128 W/m2
14:29 47.3 °F /  8.5 °C 41.5 °F /  5.3 °C 30.22in /  1023.2hPa WSW 8.1mph /  13km/h 9mph /  14.5km/h 80.2% 0.00in /  0mm 119 W/m2
14:34 47.3 °F /  8.5 °C 41.4 °F /  5.2 °C 30.22in /  1023.2hPa WSW 7.8mph /  12.6km/h 8mph /  12.9km/h 80% 0.00in /  0mm 113 W/m2
14:39 47.2 °F /  8.4 °C 41.4 °F /  5.2 °C 30.22in /  1023.2hPa WSW 8.7mph /  14km/h 9mph /  14.5km/h 80.2% 0.00in /  0mm 106 W/m2
14:44 47 °F /  8.3 °C 41.5 °F /  5.3 °C 30.22in /  1023.2hPa WSW 8mph /  12.9km/h 9mph /  14.5km/h 81% 0.00in /  0mm 96 W/m2
14:49 46.8 °F /  8.2 °C 41.2 °F /  5.1 °C 30.22in /  1023.2hPa WSW 8.4mph /  13.5km/h 8mph /  12.9km/h 81% 0.00in /  0mm 96 W/m2
14:54 46.6 °F /  8.1 °C 41.4 °F /  5.2 °C 30.22in /  1023.2hPa WSW 7mph /  11.3km/h 9mph /  14.5km/h 82.1% 0.00in /  0mm 82 W/m2
14:59 46.3 °F /  7.9 °C 41.4 °F /  5.2 °C 30.22in /  1023.2hPa WSW 7.7mph /  12.4km/h 9mph /  14.5km/h 83% 0.00in /  0mm 75 W/m2
15:04 46 °F /  7.8 °C 41.4 °F /  5.2 °C 30.22in /  1023.2hPa WSW 6.7mph /  10.8km/h 8mph /  12.9km/h 83.5% 0.00in /  0mm 66 W/m2
15:09 45.9 °F /  7.7 °C 41.3 °F /  5.2 °C 30.23in /  1023.6hPa WSW 6.4mph /  10.3km/h 7mph /  11.3km/h 84% 0.00in /  0mm 57 W/m2
15:14 45.8 °F /  7.7 °C 41.2 °F /  5.1 °C 30.23in /  1023.6hPa WSW 5.7mph /  9.2km/h 7mph /  11.3km/h 84% 0.00in /  0mm 50 W/m2
15:19 45.6 °F /  7.6 °C 41.3 °F /  5.2 °C 30.23in /  1023.6hPa WSW 4.8mph /  7.7km/h 7mph /  11.3km/h 84.9% 0.00in /  0mm 43 W/m2
15:24 45.3 °F /  7.4 °C 41.1 °F /  5.1 °C 30.23in /  1023.6hPa WSW 5.2mph /  8.4km/h 6mph /  9.7km/h 85.1% 0.00in /  0mm 35 W/m2
15:29 45 °F /  7.2 °C 41 °F /  5 °C 30.23in /  1023.6hPa SW 5.5mph /  8.9km/h 6mph /  9.7km/h 86% 0.00in /  0mm 30 W/m2
15:34 44.6 °F /  7 °C 41 °F /  5 °C 30.23in /  1023.6hPa SW 5.3mph /  8.5km/h 7mph /  11.3km/h 87% 0.00in /  0mm 25 W/m2
15:39 44.3 °F /  6.8 °C 41 °F /  5 °C 30.23in /  1023.6hPa SW 4.6mph /  7.4km/h 6mph /  9.7km/h 88% 0.00in /  0mm 21 W/m2
15:44 44 °F /  6.7 °C 40.7 °F /  4.8 °C 30.23in /  1023.6hPa SW 5.9mph /  9.5km/h 5mph /  8km/h 88.2% 0.00in /  0mm 15 W/m2
15:49 43.7 °F /  6.5 °C 40.7 °F /  4.8 °C 30.23in /  1023.6hPa SW 6.5mph /  10.5km/h 7mph /  11.3km/h 89% 0.00in /  0mm 11 W/m2
15:54 43.3 °F /  6.3 °C 40.3 °F /  4.6 °C 30.24in /  1023.9hPa SW 7.8mph /  12.6km/h 8mph /  12.9km/h 89% 0.00in /  0mm 7 W/m2
15:59 43.1 °F /  6.2 °C 40.2 °F /  4.6 °C 30.24in /  1023.9hPa SW 7.2mph /  11.6km/h 9mph /  14.5km/h 89.7% 0.00in /  0mm 4 W/m2
16:04 42.9 °F /  6.1 °C 40.1 °F /  4.5 °C 30.24in /  1023.9hPa SW 7.6mph /  12.2km/h 8mph /  12.9km/h 90% 0.00in /  0mm 2 W/m2
16:09 42.5 °F /  5.8 °C 39.8 °F /  4.3 °C 30.24in /  1023.9hPa WSW 7mph /  11.3km/h 8mph /  12.9km/h 90% 0.00in /  0mm 1 W/m2
16:14 42.3 °F /  5.7 °C 39.7 °F /  4.3 °C 30.24in /  1023.9hPa WSW 7.5mph /  12.1km/h 7mph /  11.3km/h 90.4% 0.00in /  0mm 0 W/m2
16:19 42.1 °F /  5.6 °C 39.6 °F /  4.2 °C 30.24in /  1023.9hPa WSW 6.6mph /  10.6km/h 8mph /  12.9km/h 91% 0.00in /  0mm 0 W/m2
16:24 41.9 °F /  5.5 °C 39.5 °F /  4.2 °C 30.24in /  1023.9hPa WSW 6.5mph /  10.5km/h 7mph /  11.3km/h 91% 0.00in /  0mm 0 W/m2
16:29 41.8 °F /  5.4 °C 39.4 °F /  4.1 °C 30.25in /  1024.3hPa SW 6.9mph /  11.1km/h 7mph /  11.3km/h 91.4% 0.00in /  0mm 0 W/m2
16:34 41.5 °F /  5.3 °C 39.7 °F /  4.3 °C 30.25in /  1024.3hPa WSW 5.8mph /  9.3km/h 8mph /  12.9km/h 93% 0.00in /  0mm 0 W/m2
16:39 41.4 °F /  5.2 °C 39.6 °F /  4.2 °C 30.25in /  1024.3hPa WSW 5.5mph /  8.9km/h 6mph /  9.7km/h 93% 0.00in /  0mm 0 W/m2
16:44 41.3 °F /  5.2 °C 39.4 °F /  4.1 °C 30.25in /  1024.3hPa WSW 6.3mph /  10.1km/h 6mph /  9.7km/h 93% 0.00in /  0mm 0 W/m2
16:49 41.1 °F /  5.1 °C 39.2 °F /  4 °C 30.25in /  1024.3hPa WSW 5.5mph /  8.9km/h 7mph /  11.3km/h 93% 0.00in /  0mm 0 W/m2
16:54 40.9 °F /  4.9 °C 39.1 °F /  3.9 °C 30.25in /  1024.3hPa West 5.5mph /  8.9km/h 6mph /  9.7km/h 93.5% 0.00in /  0mm 0 W/m2
16:59 40.7 °F /  4.8 °C 39.1 °F /  3.9 °C 30.25in /  1024.3hPa West 4.6mph /  7.4km/h 7mph /  11.3km/h 94% 0.00in /  0mm 0 W/m2
17:04 40.5 °F /  4.7 °C 38.9 °F /  3.8 °C 30.25in /  1024.3hPa WSW 2.7mph /  4.3km/h 5mph /  8km/h 94% 0.00in /  0mm 0 W/m2
17:09 40.4 °F /  4.7 °C 38.8 °F /  3.8 °C 30.25in /  1024.3hPa WSW 2.2mph /  3.5km/h 3mph /  4.8km/h 94% 0.00in /  0mm 0 W/m2
17:14 40.2 °F /  4.6 °C 38.6 °F /  3.7 °C 30.25in /  1024.3hPa WSW 2.2mph /  3.5km/h 2mph /  3.2km/h 94% 0.00in /  0mm 0 W/m2
17:19 40 °F /  4.4 °C 38.4 °F /  3.6 °C 30.25in /  1024.3hPa SW 2mph /  3.2km/h 2mph /  3.2km/h 94% 0.00in /  0mm 0 W/m2
17:24 39.8 °F /  4.3 °C 38.5 °F /  3.6 °C 30.25in /  1024.3hPa SW 2.6mph /  4.2km/h 2mph /  3.2km/h 94.9% 0.00in /  0mm 0 W/m2
17:29 39.6 °F /  4.2 °C 38.3 °F /  3.5 °C 30.25in /  1024.3hPa SW 2.8mph /  4.5km/h 3mph /  4.8km/h 95% 0.00in /  0mm 0 W/m2
17:34 39.3 °F /  4.1 °C 38 °F /  3.3 °C 30.25in /  1024.3hPa SW 2.8mph /  4.5km/h 3mph /  4.8km/h 95% 0.00in /  0mm 0 W/m2
17:39 39.1 °F /  3.9 °C 37.8 °F /  3.2 °C 30.25in /  1024.3hPa SW 2.7mph /  4.3km/h 3mph /  4.8km/h 95% 0.00in /  0mm 0 W/m2
17:44 39 °F /  3.9 °C 37.7 °F /  3.2 °C 30.26in /  1024.6hPa WSW 2.3mph /  3.7km/h 3mph /  4.8km/h 95% 0.00in /  0mm 0 W/m2
17:49 38.8 °F /  3.8 °C 37.5 °F /  3.1 °C 30.26in /  1024.6hPa WSW 2.9mph /  4.7km/h 3mph /  4.8km/h 95.2% 0.00in /  0mm 0 W/m2
17:54 38.7 °F /  3.7 °C 37.6 °F /  3.1 °C 30.26in /  1024.6hPa SW 1.9mph /  3.1km/h 3mph /  4.8km/h 96% 0.00in /  0mm 0 W/m2
17:59 38.5 °F /  3.6 °C 37.4 °F /  3 °C 30.26in /  1024.6hPa SSW 2.3mph /  3.7km/h 2mph /  3.2km/h 96% 0.00in /  0mm 0 W/m2
18:04 38.5 °F /  3.6 °C 37.4 °F /  3 °C 30.26in /  1024.6hPa SSW 2.4mph /  3.9km/h 2mph /  3.2km/h 96% 0.00in /  0mm 0 W/m2
18:09 38.4 °F /  3.6 °C 37.3 °F /  2.9 °C 30.26in /  1024.6hPa SW 2.4mph /  3.9km/h 3mph /  4.8km/h 96% 0.00in /  0mm 0 W/m2
18:14 38.2 °F /  3.4 °C 37.2 °F /  2.9 °C 30.26in /  1024.6hPa WSW 1.8mph /  2.9km/h 2mph /  3.2km/h 96% 0.00in /  0mm 0 W/m2
18:19 38 °F /  3.3 °C 37 °F /  2.8 °C 30.26in /  1024.6hPa WSW 1.9mph /  3.1km/h 2mph /  3.2km/h 96% 0.00in /  0mm 0 W/m2
18:24 37.9 °F /  3.3 °C 36.8 °F /  2.7 °C 30.27in /  1024.9hPa West 2.2mph /  3.5km/h 2mph /  3.2km/h 96% 0.00in /  0mm 0 W/m2
18:29 37.7 °F /  3.2 °C 36.6 °F /  2.6 °C 30.27in /  1024.9hPa SSW 2.2mph /  3.5km/h 3mph /  4.8km/h 96% 0.00in /  0mm 0 W/m2
18:34 37.6 °F /  3.1 °C 36.5 °F /  2.5 °C 30.27in /  1024.9hPa SW 1.9mph /  3.1km/h 3mph /  4.8km/h 96% 0.00in /  0mm 0 W/m2
18:39 37.4 °F /  3 °C 36.7 °F /  2.6 °C 30.27in /  1024.9hPa West 1.5mph /  2.4km/h 2mph /  3.2km/h 97% 0.00in /  0mm 0 W/m2
18:44 37.3 °F /  2.9 °C 36.7 °F /  2.6 °C 30.27in /  1024.9hPa North 0.8mph /  1.3km/h 2mph /  3.2km/h 97.5% 0.00in /  0mm 0 W/m2
18:49 37.2 °F /  2.9 °C 36.2 °F /  2.3 °C 30.27in /  1024.9hPa NW 1.4mph /  2.3km/h 1.3mph /  2.1km/h 96% 0.00in /  0mm 0 W/m2
18:54 37 °F /  2.8 °C 36.5 °F /  2.5 °C 30.28in /  1025.3hPa West 2.2mph /  3.5km/h 2mph /  3.2km/h 97.8% 0.00in /  0mm 0 W/m2
18:59 36.9 °F /  2.7 °C 36.4 °F /  2.4 °C 30.28in /  1025.3hPa WSW 2.7mph /  4.3km/h 3.1mph /  5km/h 98% 0.00in /  0mm 0 W/m2
19:04 36.8 °F /  2.7 °C 36.3 °F /  2.4 °C 30.28in /  1025.3hPa WSW 3.8mph /  6.1km/h 5mph /  8km/h 98% 0.00in /  0mm 0 W/m2
19:09 36.7 °F /  2.6 °C 36.4 °F /  2.4 °C 30.28in /  1025.3hPa WSW 3.1mph /  5km/h 5mph /  8km/h 98.9% 0.00in /  0mm 0 W/m2
19:14 36.7 °F /  2.6 °C 36.4 °F /  2.4 °C 30.28in /  1025.3hPa WSW 2.3mph /  3.7km/h 3mph /  4.8km/h 99% 0.00in /  0mm 0 W/m2
19:19 36.7 °F /  2.6 °C 36.4 °F /  2.4 °C 30.28in /  1025.3hPa West 2.6mph /  4.2km/h 3mph /  4.8km/h 99% 0.00in /  0mm 0 W/m2
19:24 36.7 °F /  2.6 °C 36.4 °F /  2.4 °C 30.28in /  1025.3hPa West 2.4mph /  3.9km/h 4mph /  6.4km/h 99% 0.00in /  0mm 0 W/m2
19:29 36.7 °F /  2.6 °C 36.4 °F /  2.4 °C 30.28in /  1025.3hPa West 1.1mph /  1.8km/h 4mph /  6.4km/h 99% 0.00in /  0mm 0 W/m2
19:34 36.5 °F /  2.5 °C 36.2 °F /  2.3 °C 30.28in /  1025.3hPa West 1.9mph /  3.1km/h 2mph /  3.2km/h 99% 0.00in /  0mm 0 W/m2
19:39 36.5 °F /  2.5 °C 36.2 °F /  2.3 °C 30.28in /  1025.3hPa WNW 2.4mph /  3.9km/h 3mph /  4.8km/h 99% 0.00in /  0mm 0 W/m2
19:44 36.4 °F /  2.4 °C 36.1 °F /  2.3 °C 30.28in /  1025.3hPa NNW 1.2mph /  1.9km/h 3mph /  4.8km/h 99% 0.00in /  0mm 0 W/m2
19:49 36.3 °F /  2.4 °C 36.1 °F /  2.3 °C 30.28in /  1025.3hPa NNE 2.7mph /  4.3km/h 2mph /  3.2km/h 99% 0.00in /  0mm 0 W/m2
19:54 36.3 °F /  2.4 °C 36.1 °F /  2.3 °C 30.28in /  1025.3hPa ENE 1.1mph /  1.8km/h 3mph /  4.8km/h 99% 0.00in /  0mm 0 W/m2
19:59 36.3 °F /  2.4 °C 36.1 °F /  2.3 °C 30.28in /  1025.3hPa NNE 2.1mph /  3.4km/h 2mph /  3.2km/h 99% 0.00in /  0mm 0 W/m2
20:04 36.2 °F /  2.3 °C 36 °F /  2.2 °C 30.28in /  1025.3hPa NW 1.2mph /  1.9km/h 3mph /  4.8km/h 99% 0.00in /  0mm 0 W/m2
20:09 36 °F /  2.2 °C 35.8 °F /  2.1 °C 30.28in /  1025.3hPa NW 1.2mph /  1.9km/h 1.6mph /  2.6km/h 99% 0.00in /  0mm 0 W/m2
20:14 36 °F /  2.2 °C 35.7 °F /  2.1 °C 30.28in /  1025.3hPa NNW 0.6mph /  1km/h 2mph /  3.2km/h 99% 0.00in /  0mm 0 W/m2
20:19 35.8 °F /  2.1 °C 35.5 °F /  1.9 °C 30.28in /  1025.3hPa NNW 1.5mph /  2.4km/h 1.3mph /  2.1km/h 99% 0.00in /  0mm 0 W/m2
20:24 35.8 °F /  2.1 °C 35.5 °F /  1.9 °C 30.29in /  1025.6hPa NW 1.1mph /  1.8km/h 2mph /  3.2km/h 99% 0.00in /  0mm 0 W/m2
20:29 35.6 °F /  2 °C 35.3 °F /  1.8 °C 30.29in /  1025.6hPa NW 1.4mph /  2.3km/h 2mph /  3.2km/h 99% 0.00in /  0mm 0 W/m2
20:34 35.4 °F /  1.9 °C 35.2 °F /  1.8 °C 30.28in /  1025.3hPa NNW 1.3mph /  2.1km/h 2mph /  3.2km/h 99% 0.00in /  0mm 0 W/m2
20:39 35.2 °F /  1.8 °C 35 °F /  1.7 °C 30.28in /  1025.3hPa NW 1.9mph /  3.1km/h 2mph /  3.2km/h 99% 0.00in /  0mm 0 W/m2
20:44 35 °F /  1.7 °C 34.7 °F /  1.5 °C 30.28in /  1025.3hPa WNW 2.4mph /  3.9km/h 2mph /  3.2km/h 99% 0.00in /  0mm 0 W/m2
20:49 34.7 °F /  1.5 °C 34.4 °F /  1.3 °C 30.29in /  1025.6hPa SW 3mph /  4.8km/h 3mph /  4.8km/h 99% 0.00in /  0mm 0 W/m2
20:54 34.4 °F /  1.3 °C 34.2 °F /  1.2 °C 30.28in /  1025.3hPa SSW 3mph /  4.8km/h 4mph /  6.4km/h 99% 0.00in /  0mm 0 W/m2
20:59 34.3 °F /  1.3 °C 34 °F /  1.1 °C 30.29in /  1025.6hPa SSW 2.2mph /  3.5km/h 4mph /  6.4km/h 99% 0.00in /  0mm 0 W/m2
21:04 34.2 °F /  1.2 °C 33.9 °F /  1.1 °C 30.29in /  1025.6hPa WSW 1.8mph /  2.9km/h 2mph /  3.2km/h 99% 0.00in /  0mm 0 W/m2
21:09 34 °F /  1.1 °C 33.7 °F /  0.9 °C 30.29in /  1025.6hPa WNW 2.1mph /  3.4km/h 2mph /  3.2km/h 99% 0.00in /  0mm 0 W/m2
21:14 33.9 °F /  1.1 °C 33.6 °F /  0.9 °C 30.29in /  1025.6hPa WNW 2.3mph /  3.7km/h 3mph /  4.8km/h 99% 0.00in /  0mm 0 W/m2
21:19 33.8 °F /  1 °C 33.5 °F /  0.8 °C 30.29in /  1025.6hPa WNW 2.3mph /  3.7km/h 3mph /  4.8km/h 99% 0.00in /  0mm 0 W/m2
21:24 33.7 °F /  0.9 °C 33.5 °F /  0.8 °C 30.29in /  1025.6hPa WNW 1.2mph /  1.9km/h 2mph /  3.2km/h 99% 0.00in /  0mm 0 W/m2
21:29 33.6 °F /  0.9 °C 33.4 °F /  0.8 °C 30.29in /  1025.6hPa NW 1.7mph /  2.7km/h 2mph /  3.2km/h 99% 0.00in /  0mm 0 W/m2
21:34 33.6 °F /  0.9 °C 33.4 °F /  0.8 °C 30.29in /  1025.6hPa NW 1.1mph /  1.8km/h 2mph /  3.2km/h 99% 0.00in /  0mm 0 W/m2
21:39 33.4 °F /  0.8 °C 33.2 °F /  0.7 °C 30.29in /  1025.6hPa NW 0.9mph /  1.4km/h 1mph /  1.6km/h 99% 0.00in /  0mm 0 W/m2
21:44 33.3 °F /  0.7 °C 33 °F /  0.6 °C 30.29in /  1025.6hPa WNW 1.1mph /  1.8km/h 2mph /  3.2km/h 99% 0.00in /  0mm 0 W/m2
21:49 33.3 °F /  0.7 °C 33 °F /  0.6 °C 30.30in /  1026hPa WSW 1.4mph /  2.3km/h 2mph /  3.2km/h 99% 0.00in /  0mm 0 W/m2
21:54 33.1 °F /  0.6 °C 32.8 °F /  0.4 °C 30.30in /  1026hPa SSW 2.1mph /  3.4km/h 2mph /  3.2km/h 99% 0.00in /  0mm 0 W/m2
21:59 33.1 °F /  0.6 °C 32.8 °F /  0.4 °C 30.30in /  1026hPa SW 1.8mph /  2.9km/h 2mph /  3.2km/h 99% 0.00in /  0mm 0 W/m2
22:04 32.9 °F /  0.5 °C 32.7 °F /  0.4 °C 30.30in /  1026hPa West 1.7mph /  2.7km/h 2.2mph /  3.5km/h 99% 0.00in /  0mm 0 W/m2
22:09 32.8 °F /  0.4 °C 32.6 °F /  0.3 °C 30.30in /  1026hPa NW 3.1mph /  5km/h 5mph /  8km/h 99% 0.00in /  0mm 0 W/m2
22:14 32.6 °F /  0.3 °C 32.4 °F /  0.2 °C 30.29in /  1025.6hPa NNW 2.1mph /  3.4km/h 3mph /  4.8km/h 99% 0.00in /  0mm 0 W/m2
22:19 32.5 °F /  0.3 °C 32.3 °F /  0.2 °C 30.30in /  1026hPa NNW 1mph /  1.6km/h 2mph /  3.2km/h 99% 0.00in /  0mm 0 W/m2
22:24 32.4 °F /  0.2 °C 32.1 °F /  0.1 °C 30.30in /  1026hPa NW 0.5mph /  0.8km/h 1mph /  1.6km/h 99% 0.00in /  0mm 0 W/m2
22:29 32.3 °F /  0.2 °C 32 °F /  0 °C 30.30in /  1026hPa NW 1.5mph /  2.4km/h 1.3mph /  2.1km/h 99% 0.00in /  0mm 0 W/m2
22:34 32.2 °F /  0.1 °C 31.9 °F /  -0.1 °C 30.30in /  1026hPa WSW 1.2mph /  1.9km/h 2mph /  3.2km/h 99% 0.00in /  0mm 0 W/m2
22:39 32.2 °F /  0.1 °C 31.9 °F /  -0.1 °C 30.30in /  1026hPa Calm   2mph /  3.2km/h 99% 0.00in /  0mm 0 W/m2
22:44 32.1 °F /  0.1 °C 31.8 °F /  -0.1 °C 30.30in /  1026hPa West 0.8mph /  1.3km/h 0.4mph /  0.6km/h 99% 0.00in /  0mm 0 W/m2
22:49 31.8 °F /  -0.1 °C 31.6 °F /  -0.2 °C 30.30in /  1026hPa NNW 0.2mph /  0.3km/h 2mph /  3.2km/h 99% 0.00in /  0mm 0 W/m2
22:54 31.8 °F /  -0.1 °C 31.6 °F /  -0.2 °C 30.30in /  1026hPa NNW 0.4mph /  0.6km/h 1mph /  1.6km/h 99% 0.00in /  0mm 0 W/m2
22:59 31.6 °F /  -0.2 °C 31.3 °F /  -0.4 °C 30.30in /  1026hPa North 1.3mph /  2.1km/h 1.3mph /  2.1km/h 99% 0.00in /  0mm 0 W/m2
23:04 31.5 °F /  -0.3 °C 31.3 °F /  -0.4 °C 30.30in /  1026hPa North 0.7mph /  1.1km/h 2mph /  3.2km/h 99% 0.00in /  0mm 0 W/m2
23:09 31.5 °F /  -0.3 °C 31.3 °F /  -0.4 °C 30.30in /  1026hPa Calm   1mph /  1.6km/h 99% 0.00in /  0mm 0 W/m2
23:14 31.5 °F /  -0.3 °C 31.2 °F /  -0.4 °C 30.30in /  1026hPa West 0.6mph /  1km/h 1mph /  1.6km/h 99% 0.00in /  0mm 0 W/m2
23:19 31.5 °F /  -0.3 °C 31.2 °F /  -0.4 °C 30.30in /  1026hPa West 1.7mph /  2.7km/h 2mph /  3.2km/h 99% 0.00in /  0mm 0 W/m2
23:24 31.3 °F /  -0.4 °C 31 °F /  -0.6 °C 30.30in /  1026hPa WNW 1.4mph /  2.3km/h 2mph /  3.2km/h 99% 0.00in /  0mm 0 W/m2
23:29 31.3 °F /  -0.4 °C 31 °F /  -0.6 °C 30.30in /  1026hPa NW 1.9mph /  3.1km/h 2mph /  3.2km/h 99% 0.00in /  0mm 0 W/m2
23:34 31.3 °F /  -0.4 °C 31 °F /  -0.6 °C 30.30in /  1026hPa NW 2.6mph /  4.2km/h 3mph /  4.8km/h 99% 0.00in /  0mm 0 W/m2
23:39 31.3 °F /  -0.4 °C 31 °F /  -0.6 °C 30.30in /  1026hPa NW 1.4mph /  2.3km/h 3mph /  4.8km/h 99% 0.00in /  0mm 0 W/m2
23:44 31.3 °F /  -0.4 °C 31 °F /  -0.6 °C 30.30in /  1026hPa NW 2.2mph /  3.5km/h 2mph /  3.2km/h 99% 0.00in /  0mm 0 W/m2
23:49 31.1 °F /  -0.5 °C 30.9 °F /  -0.6 °C 30.30in /  1026hPa NW 1.7mph /  2.7km/h 3mph /  4.8km/h 99% 0.00in /  0mm 0 W/m2
23:54 31 °F /  -0.6 °C 30.8 °F /  -0.7 °C 30.30in /  1026hPa NNW 0.5mph /  0.8km/h 3mph /  4.8km/h 99% 0.00in /  0mm 0 W/m2
23:59 30.9 °F /  -0.6 °C 30.7 °F /  -0.7 °C 30.30in /  1026hPa North 0.7mph /  1.1km/h 1mph /  1.6km/h 99% 0.00in /  0mm 0 W/m2
Knjazevac, Serbia
Compliments of Weather Underground - 4 mb